createdAt,value
2023-06-21T00:01:53.452Z,99862.75
2023-06-21T00:04:20.935Z,99862.59
2023-06-21T00:17:42.851Z,99851.13
2023-06-21T00:20:11.860Z,99851.16
2023-06-21T00:22:39.049Z,99848.66
2023-06-21T00:25:07.055Z,99850.69
2023-06-21T00:27:58.305Z,99841.91
2023-06-21T00:31:21.625Z,99852.72
2023-06-21T00:47:53.355Z,99863.34
2023-06-21T00:50:20.075Z,99854.56
2023-06-21T00:52:50.554Z,99862.19
2023-06-21T00:55:20.346Z,99867.12
2023-06-21T00:58:35.633Z,99864.75
2023-06-21T01:01:38.895Z,99869.53
2023-06-21T01:04:09.922Z,99862.38
2023-06-21T01:06:50.554Z,99867.78
2023-06-21T01:09:29.439Z,99868.53
2023-06-21T01:12:26.424Z,99865.75
2023-06-21T01:18:17.198Z,99864.66
2023-06-21T01:20:50.088Z,99874.06
2023-06-21T01:23:30.654Z,99867.91
2023-06-21T01:26:58.980Z,99871.94
2023-06-21T01:32:28.912Z,99859.19
2023-06-21T01:34:57.142Z,99857.50
2023-06-21T01:37:26.575Z,99856.75
2023-06-21T01:39:55.765Z,99861.56
2023-06-21T01:42:31.194Z,99852.72
2023-06-21T02:22:32.394Z,99885.69
2023-06-21T02:24:58.960Z,99881.41
2023-06-21T02:27:25.539Z,99879.03
2023-06-21T02:29:52.623Z,99881.13
2023-06-21T02:32:19.278Z,99887.34
2023-06-21T02:35:11.569Z,99883.75
2023-06-21T02:38:15.619Z,99876.34
2023-06-21T03:54:02.891Z,99864.72
2023-06-21T03:56:29.467Z,99867.19
2023-06-21T03:59:11.429Z,99868.38
2023-06-21T04:01:38.227Z,99870.41
2023-06-21T04:15:22.129Z,99868.97
2023-06-21T04:17:50.538Z,99874.53
2023-06-21T04:20:26.319Z,99873.44
2023-06-21T04:22:53.070Z,99887.88
2023-06-21T04:25:19.812Z,99887.94
2023-06-21T04:27:49.531Z,99890.34
2023-06-21T04:30:16.293Z,99888.03
2023-06-21T04:32:47.098Z,99898.88
2023-06-21T04:35:15.532Z,99913.25
2023-06-21T04:37:46.364Z,99916.91
2023-06-21T04:40:32.050Z,99920.59
2023-06-21T05:09:44.671Z,99937.31
2023-06-21T05:12:31.827Z,99935.41
2023-06-21T05:15:09.157Z,99928.31
2023-06-21T05:17:36.884Z,99929.00
2023-06-21T05:20:05.455Z,99922.19
2023-06-21T05:22:32.852Z,99917.63
2023-06-21T05:25:01.819Z,99915.41
2023-06-21T05:27:28.528Z,99922.03
2023-06-21T05:30:15.065Z,99924.16
2023-06-21T05:32:41.693Z,99930.41
2023-06-21T05:35:08.835Z,99934.13
2023-06-21T05:37:35.695Z,99939.00
2023-06-21T05:40:52.219Z,99934.53
2023-06-21T05:43:56.263Z,99941.41
2023-06-21T06:00:48.268Z,99938.25
2023-06-21T06:03:15.110Z,99943.47
2023-06-21T06:05:41.843Z,99946.25
2023-06-21T06:09:20.865Z,99947.69
2023-06-21T06:12:48.316Z,99949.69
2023-06-21T06:44:27.877Z,99948.41
2023-06-21T06:46:54.731Z,99935.06
2023-06-21T06:49:21.303Z,99942.31
2023-06-21T06:51:47.976Z,99938.81
2023-06-21T06:54:14.982Z,99938.41
2023-06-21T06:56:41.584Z,99946.44
2023-06-21T06:59:08.266Z,99948.06
2023-06-21T07:01:34.867Z,99948.06
2023-06-21T07:04:01.572Z,99945.25
2023-06-21T07:06:28.233Z,99942.38
2023-06-21T07:08:54.924Z,99940.75
2023-06-21T07:11:21.585Z,99940.75
2023-06-21T07:45:43.085Z,99942.22
2023-06-21T07:48:09.776Z,99939.84
2023-06-21T07:50:36.554Z,99938.56
2023-06-21T07:53:03.310Z,99932.41
2023-06-21T07:55:30.603Z,99931.94
2023-06-21T07:57:57.422Z,99934.44
2023-06-21T08:00:24.060Z,99932.81
2023-06-21T08:02:52.790Z,99923.41
2023-06-21T08:05:20.229Z,99919.09
2023-06-21T08:07:47.359Z,99927.91
2023-06-21T08:10:14.233Z,99927.56
2023-06-21T08:12:41.169Z,99937.34
2023-06-21T08:15:08.393Z,99954.91
2023-06-21T08:17:35.183Z,99945.38
2023-06-21T08:20:02.003Z,99942.34
2023-06-21T08:22:28.677Z,99948.16
2023-06-21T08:24:57.446Z,99943.88
2023-06-21T08:27:48.239Z,99952.88
2023-06-21T08:30:30.339Z,99959.72
2023-06-21T08:32:57.005Z,99948.81
2023-06-21T08:35:23.601Z,99950.38
2023-06-21T08:38:27.418Z,99957.66
2023-06-21T08:41:32.281Z,99959.19
2023-06-21T08:44:33.265Z,99968.97
2023-06-21T08:59:13.566Z,99987.91
2023-06-21T09:01:54.104Z,99987.00
2023-06-21T09:04:25.310Z,99973.66
2023-06-21T09:06:53.138Z,99975.81
2023-06-21T09:13:44.217Z,99978.13
2023-06-21T09:29:20.305Z,99982.69
2023-06-21T10:23:16.780Z,100000.78
2023-06-21T10:25:47.282Z,100003.16
2023-06-21T10:28:16.192Z,99993.09
2023-06-21T10:30:45.597Z,99990.47
2023-06-21T10:33:15.908Z,99986.37
2023-06-21T10:35:46.630Z,99990.16
2023-06-21T11:09:53.580Z,100019.91
2023-06-21T11:12:20.207Z,100001.53
2023-06-21T11:14:47.781Z,100005.28
2023-06-21T11:17:16.051Z,100002.47
2023-06-21T11:19:45.713Z,99999.16
2023-06-21T11:22:30.732Z,100008.44
2023-06-21T11:25:01.772Z,100000.88
2023-06-21T11:27:28.852Z,100005.63
2023-06-21T11:30:01.335Z,100005.09
2023-06-21T11:33:13.281Z,100000.91
2023-06-21T11:36:00.529Z,99995.13
2023-06-21T11:38:31.005Z,99995.66
2023-06-21T11:40:58.828Z,99989.88
2023-06-21T11:43:25.516Z,99995.13
2023-06-21T11:46:01.324Z,99984.13
2023-06-21T11:48:29.204Z,99991.44
2023-06-21T12:25:19.661Z,99959.59
2023-06-21T12:27:58.260Z,99959.59
2023-06-21T12:30:27.059Z,99957.00
2023-06-21T12:32:54.006Z,99950.34
2023-06-21T12:35:20.828Z,99951.97
2023-06-21T12:38:10.478Z,99959.06
2023-06-21T12:40:37.041Z,99955.94
2023-06-21T12:43:03.637Z,99953.13
2023-06-21T12:45:30.254Z,99966.69
2023-06-21T12:49:06.684Z,99960.09
2023-06-21T13:09:10.457Z,99934.72
2023-06-21T13:11:38.042Z,99936.31
2023-06-21T13:14:05.964Z,99937.94
2023-06-21T13:21:05.820Z,99944.41
2023-06-21T13:40:05.695Z,99907.34
2023-06-21T13:42:32.573Z,99902.09
2023-06-21T13:44:59.350Z,99917.25
2023-06-21T14:07:11.525Z,99895.53
2023-06-21T14:09:43.514Z,99900.91
2023-06-21T14:12:10.545Z,99898.00
2023-06-21T14:14:42.924Z,99897.78
2023-06-21T14:18:04.531Z,99903.66
2023-06-21T14:20:49.998Z,99895.22
2023-06-21T14:23:16.645Z,99911.94
2023-06-21T14:25:44.879Z,99905.53
2023-06-21T14:28:11.552Z,99905.28
2023-06-21T14:30:38.090Z,99910.94
2023-06-21T14:33:08.386Z,99912.53
2023-06-21T14:58:14.274Z,99939.06
2023-06-21T15:00:40.853Z,99943.31
2023-06-21T15:03:07.569Z,99943.19
2023-06-21T15:05:34.202Z,99946.19
2023-06-21T15:08:01.932Z,99940.56
2023-06-21T16:03:03.849Z,99913.25
2023-06-21T16:05:34.453Z,99924.78
2023-06-21T16:08:04.597Z,99918.75
2023-06-21T16:10:31.203Z,99914.41
2023-06-21T16:12:58.663Z,99909.66
2023-06-21T16:15:25.437Z,99915.06
2023-06-21T16:17:52.352Z,99909.53
2023-06-21T16:20:18.970Z,99913.62
2023-06-21T16:22:45.530Z,99917.66
2023-06-21T16:25:12.170Z,99926.03
2023-06-21T16:27:38.775Z,99921.81
2023-06-21T17:36:15.294Z,99931.56
2023-06-21T17:38:41.823Z,99925.63
2023-06-21T17:41:08.434Z,99945.16
2023-06-21T17:48:04.637Z,99948.53
2023-06-21T17:50:31.538Z,99952.25
2023-06-21T17:52:58.239Z,99964.88
2023-06-21T17:55:28.255Z,99970.56
2023-06-21T17:58:13.896Z,99968.22
2023-06-21T18:00:40.682Z,99978.31
2023-06-21T18:05:49.428Z,99997.41
2023-06-21T18:08:16.056Z,99985.78
2023-06-21T18:10:42.731Z,99979.75
2023-06-21T18:14:09.512Z,99976.16
2023-06-21T18:21:03.183Z,99975.91
2023-06-21T18:34:53.346Z,99992.72
2023-06-21T18:37:19.934Z,99993.59
2023-06-21T18:39:46.610Z,99990.00
2023-06-21T18:43:15.453Z,99988.41
2023-06-21T18:46:23.581Z,99982.41
2023-06-21T18:48:53.179Z,99991.31
2023-06-21T18:51:25.589Z,99996.62
2023-06-21T18:53:53.759Z,100003.47
2023-06-21T18:56:21.299Z,100005.94
2023-06-21T18:58:50.263Z,100014.44
2023-06-21T19:01:36.720Z,100006.78
2023-06-21T19:04:03.948Z,100004.38
2023-06-21T19:06:30.907Z,100013.69
2023-06-21T19:08:57.490Z,100017.75
2023-06-21T19:11:45.985Z,100022.22
2023-06-21T19:14:40.665Z,100018.59
2023-06-21T19:17:31.462Z,100010.16
2023-06-21T19:19:58.159Z,100009.00
2023-06-21T19:57:43.373Z,100075.94
2023-06-21T20:00:11.328Z,100111.34
2023-06-21T20:02:38.061Z,100119.44
2023-06-21T20:05:05.487Z,100144.31
2023-06-21T20:07:32.154Z,100155.16
2023-06-21T20:09:58.844Z,100151.50
2023-06-21T20:12:27.823Z,100161.12
2023-06-21T20:14:54.451Z,100157.41
2023-06-21T20:17:21.317Z,100151.84
2023-06-21T20:19:47.919Z,100153.00
2023-06-21T20:22:16.043Z,100136.09
2023-06-21T20:24:43.019Z,100126.13
2023-06-21T20:27:09.672Z,100127.22
2023-06-21T20:29:36.274Z,100123.56
2023-06-21T20:32:05.561Z,100129.22
2023-06-21T20:34:32.226Z,100129.28
2023-06-21T20:36:58.941Z,100117.31
2023-06-21T20:39:25.664Z,100111.25
2023-06-21T20:41:52.318Z,100112.03
2023-06-21T20:44:19.171Z,100116.13
2023-06-21T20:46:46.780Z,100098.88
2023-06-21T20:49:17.409Z,100098.94
2023-06-21T20:51:45.166Z,100107.78
2023-06-21T21:08:55.370Z,100130.53
2023-06-21T21:11:27.327Z,100140.53
2023-06-21T21:14:01.460Z,100139.78
2023-06-21T21:16:29.310Z,100141.56
2023-06-21T21:18:56.620Z,100129.22
2023-06-21T21:21:23.265Z,100139.25
2023-06-21T21:23:51.639Z,100144.09
2023-06-21T21:26:21.242Z,100149.31
2023-06-21T21:28:47.851Z,100149.25
2023-06-21T21:31:14.553Z,100158.84
2023-06-21T21:33:42.013Z,100159.44
2023-06-21T21:36:08.794Z,100148.78
2023-06-21T21:38:35.531Z,100139.91
2023-06-21T21:41:09.229Z,100117.66
2023-06-21T21:43:38.846Z,100118.78
2023-06-21T21:46:05.476Z,100119.69
2023-06-21T21:48:32.112Z,100114.03
2023-06-21T21:50:58.826Z,100100.34
2023-06-21T21:53:25.385Z,100111.63
2023-06-21T21:55:52.763Z,100098.56
2023-06-21T21:58:19.424Z,100102.97
2023-06-21T22:00:46.490Z,100099.22
2023-06-21T22:03:13.520Z,100109.50
2023-06-21T22:05:40.369Z,100106.72
2023-06-21T22:08:06.939Z,100107.25
2023-06-21T22:10:39.456Z,100105.06
2023-06-21T22:13:10.720Z,100112.41
2023-06-21T22:15:51.511Z,100120.47
2023-06-21T22:18:26.520Z,100122.56
2023-06-21T22:20:58.587Z,100139.34
2023-06-21T22:23:33.484Z,100141.94
2023-06-21T22:26:02.400Z,100137.19
2023-06-21T22:28:29.055Z,100129.09
2023-06-21T22:30:56.908Z,100121.53
2023-06-21T22:33:27.054Z,100119.13
2023-06-21T22:35:54.341Z,100116.50
2023-06-21T22:38:21.347Z,100116.06
2023-06-21T22:40:48.354Z,100112.47
2023-06-21T22:43:16.812Z,100110.81
2023-06-21T22:45:45.008Z,100103.69
2023-06-21T22:48:14.613Z,100097.53
2023-06-21T22:50:44.089Z,100083.88
2023-06-21T22:53:11.288Z,100085.94
2023-06-21T22:55:38.096Z,100085.22
2023-06-21T22:58:05.503Z,100096.03
2023-06-21T23:00:32.415Z,100102.88
2023-06-21T23:02:59.354Z,100117.66
2023-06-21T23:05:26.161Z,100123.25
2023-06-21T23:07:52.769Z,100129.91
2023-06-21T23:10:19.559Z,100131.97
2023-06-21T23:12:48.239Z,100132.28
2023-06-21T23:15:16.832Z,100140.56
2023-06-21T23:17:44.103Z,100157.28
2023-06-21T23:20:11.961Z,100153.00
2023-06-21T23:22:43.432Z,100153.81
2023-06-21T23:25:12.332Z,100155.59
2023-06-21T23:27:43.561Z,100157.53
2023-06-21T23:30:20.533Z,100166.25
2023-06-21T23:32:57.404Z,100164.34
2023-06-21T23:35:24.174Z,100172.81
2023-06-21T23:37:55.097Z,100166.84
2023-06-21T23:40:21.944Z,100184.06
2023-06-21T23:42:53.015Z,100197.66
2023-06-21T23:45:20.743Z,100199.31
2023-06-21T23:47:47.833Z,100167.91
2023-06-21T23:50:14.557Z,100153.16
2023-06-21T23:52:41.163Z,100134.28
2023-06-21T23:55:08.369Z,100135.37
2023-06-21T23:57:35.124Z,100146.66
